Time;durP1;ratioP1;P1;durP2;ratioP2;P2;SDS_P1;SDS_P2;PMS_P1;PMS_P2;Temp;Humidity;BMP_temperature;BMP_pressure;BME280_temperature;BME280_humidity;BME280_pressure;Samples;Min_cycle;Max_cycle;Signal;HPM_P1;HPM_P2
2022/04/01 00:00:27;;;;;;;0.85;0.10;;;;;;;;;;4212044;28;20518;-35
2022/04/01 00:02:28;;;;;;;0.63;0.28;;;;;;;;;;4211489;28;20048;-35
2022/04/01 00:04:30;;;;;;;0.30;0.30;;;;;;;;;;4210669;28;20109;-35
2022/04/01 00:06:30;;;;;;;0.60;0.10;;;;;;;;;;4212051;28;20052;-35
2022/04/01 00:08:31;;;;;;;0.90;0.47;;;;;;;;;;4211658;28;20096;-35
2022/04/01 00:10:32;;;;;;;0.77;0.32;;;;;;;;;;4211864;28;20043;-35
2022/04/01 00:12:37;;;;;;;0.38;0.20;;;;;;;;;;4211671;28;20519;-35
2022/04/01 00:14:39;;;;;;;1.38;0.30;;;;;;;;;;4211918;28;20493;-35
2022/04/01 00:16:40;;;;;;;0.20;0.15;;;;;;;;;;4210402;28;20044;-35
2022/04/01 00:18:41;;;;;;;0.40;0.28;;;;;;;;;;4209868;28;20141;-44
2022/04/01 00:20:42;;;;;;;0.20;0.20;;;;;;;;;;4211639;28;20479;-35
2022/04/01 00:22:43;;;;;;;0.28;0.10;;;;;;;;;;4211628;28;20084;-35
2022/04/01 00:24:46;;;;;;;0.30;0.17;;;;;;;;;;4212151;28;20055;-35
2022/04/01 00:26:46;;;;;;;0.20;0.20;;;;;;;;;;4214878;28;20098;-35
2022/04/01 00:28:47;;;;;;;0.20;0.10;;;;;;;;;;4213303;28;20043;-35
2022/04/01 00:30:49;;;;;;;0.20;0.10;;;;;;;;;;4214897;28;20101;-35
2022/04/01 00:32:50;;;;;;;0.30;0.20;;;;;;;;;;4214350;28;20448;-34
2022/04/01 00:34:52;;;;;;;0.47;0.40;;;;;;;;;;4214718;28;20395;-35
2022/04/01 00:36:53;;;;;;;0.43;0.15;;;;;;;;;;4214754;28;20052;-35
2022/04/01 00:38:54;;;;;;;0.73;0.40;;;;;;;;;;4214482;28;20048;-35
2022/04/01 00:40:57;;;;;;;0.20;0.20;;;;;;;;;;4196870;28;20130;-35
2022/04/01 00:42:58;;;;;;;0.57;0.28;;;;;;;;;;4214456;28;20404;-35
2022/04/01 00:44:59;;;;;;;0.45;0.22;;;;;;;;;;4214739;28;20081;-35
2022/04/01 00:47:02;;;;;;;0.30;0.20;;;;;;;;;;4213858;28;20052;-35
2022/04/01 00:49:03;;;;;;;0.20;0.20;;;;;;;;;;4213250;28;20097;-42
2022/04/01 00:51:04;;;;;;;0.13;0.13;;;;;;;;;;4214439;28;20055;-35
2022/04/01 00:53:05;;;;;;;0.28;0.17;;;;;;;;;;4214500;28;20083;-35
2022/04/01 00:55:08;;;;;;;1.45;0.30;;;;;;;;;;4212964;28;20152;-35
2022/04/01 00:57:11;;;;;;;0.40;0.20;;;;;;;;;;4214387;28;20052;-35
2022/04/01 00:59:12;;;;;;;0.60;0.30;;;;;;;;;;4214364;28;20177;-35
2022/04/01 01:01:13;;;;;;;0.45;0.20;;;;;;;;;;4196302;28;20491;-35
2022/04/01 01:03:15;;;;;;;0.55;0.20;;;;;;;;;;4212470;28;20047;-35
2022/04/01 01:05:16;;;;;;;0.40;0.30;;;;;;;;;;4213067;28;20069;-35
2022/04/01 01:07:17;;;;;;;0.93;0.60;;;;;;;;;;4212644;28;20102;-35
2022/04/01 01:09:19;;;;;;;0.55;0.20;;;;;;;;;;4214090;28;20073;-35
2022/04/01 01:11:21;;;;;;;0.45;0.40;;;;;;;;;;4212852;28;20412;-35
2022/04/01 01:13:22;;;;;;;0.35;0.30;;;;;;;;;;4213945;28;20063;-35
2022/04/01 01:15:24;;;;;;;0.20;0.10;;;;;;;;;;4213907;28;20060;-35
2022/04/01 01:17:25;;;;;;;0.90;0.30;;;;;;;;;;4212417;28;20093;-35
2022/04/01 01:19:27;;;;;;;0.20;0.20;;;;;;;;;;4214379;28;20079;-35
2022/04/01 01:21:28;;;;;;;0.20;0.20;;;;;;;;;;4214105;28;20063;-36
2022/04/01 01:23:30;;;;;;;0.22;0.20;;;;;;;;;;4213978;28;20047;-34
2022/04/01 01:25:31;;;;;;;0.45;0.30;;;;;;;;;;4212457;28;20463;-36
2022/04/01 01:27:32;;;;;;;0.30;0.20;;;;;;;;;;4213792;28;20356;-35
2022/04/01 01:29:35;;;;;;;0.40;0.20;;;;;;;;;;4212407;28;20080;-35
2022/04/01 01:31:36;;;;;;;0.20;0.20;;;;;;;;;;4214086;28;20048;-35
2022/04/01 01:33:40;;;;;;;0.40;0.20;;;;;;;;;;4213608;28;20085;-35
2022/04/01 01:35:41;;;;;;;0.13;0.13;;;;;;;;;;4212103;28;20052;-35
2022/04/01 01:37:42;;;;;;;0.38;0.20;;;;;;;;;;4213539;28;20044;-35
2022/04/01 01:39:43;;;;;;;0.80;0.20;;;;;;;;;;4213719;28;20098;-35
2022/04/01 01:41:45;;;;;;;0.22;0.10;;;;;;;;;;4212566;28;20052;-35
2022/04/01 01:43:47;;;;;;;0.38;0.25;;;;;;;;;;4212136;28;20473;-35
2022/04/01 01:45:48;;;;;;;0.20;0.20;;;;;;;;;;4213525;28;20446;-35
2022/04/01 01:47:49;;;;;;;0.43;0.20;;;;;;;;;;4213123;28;20040;-35
2022/04/01 01:54:45;;;;;;;0.43;0.32;;;;;;;;;;4213504;28;20051;-35
2022/04/01 01:56:46;;;;;;;0.28;0.28;;;;;;;;;;4212162;28;20422;-35
2022/04/01 01:58:48;;;;;;;0.20;0.20;;;;;;;;;;4212026;28;20044;-35
2022/04/01 02:00:49;;;;;;;1.15;0.28;;;;;;;;;;4213422;28;20552;-35
2022/04/01 02:02:50;;;;;;;0.73;0.28;;;;;;;;;;4212778;28;20052;-35
2022/04/01 02:04:51;;;;;;;0.57;0.20;;;;;;;;;;4213701;28;20048;-35
2022/04/01 02:06:52;;;;;;;0.77;0.30;;;;;;;;;;4213122;28;20059;-34
2022/04/01 02:08:54;;;;;;;0.30;0.20;;;;;;;;;;4213233;28;20062;-35
2022/04/01 02:10:56;;;;;;;0.10;0.10;;;;;;;;;;4211778;28;20128;-35
2022/04/01 02:12:58;;;;;;;0.80;0.30;;;;;;;;;;4194821;28;20106;-34
2022/04/01 02:14:59;;;;;;;0.35;0.20;;;;;;;;;;4213136;28;20116;-35
2022/04/01 02:17:00;;;;;;;0.60;0.20;;;;;;;;;;4194445;28;20443;-36
2022/04/01 02:19:02;;;;;;;0.35;0.20;;;;;;;;;;4212022;28;20055;-35
2022/04/01 02:21:10;;;;;;;0.43;0.13;;;;;;;;;;4211713;28;20526;-35
2022/04/01 02:23:11;;;;;;;0.40;0.30;;;;;;;;;;4211678;28;20078;-34
2022/04/01 02:25:13;;;;;;;0.40;0.10;;;;;;;;;;4212897;28;20467;-35
2022/04/01 02:27:14;;;;;;;0.20;0.20;;;;;;;;;;4211386;28;20052;-35
2022/04/01 02:29:18;;;;;;;0.20;0.10;;;;;;;;;;4211733;28;20044;-35
2022/04/01 02:31:39;;;;;;;0.52;0.10;;;;;;;;;;4213185;28;20036;-35
2022/04/01 02:34:00;;;;;;;0.68;0.13;;;;;;;;;;4212726;28;20048;-35
2022/04/01 02:36:02;;;;;;;0.20;0.20;;;;;;;;;;4211704;28;20070;-35
2022/04/01 02:38:03;;;;;;;0.30;0.20;;;;;;;;;;4211413;28;20507;-35
2022/04/01 02:40:07;;;;;;;0.30;0.22;;;;;;;;;;4211455;28;20181;-35
2022/04/01 02:42:11;;;;;;;0.20;0.17;;;;;;;;;;4211313;28;20506;-35
2022/04/01 02:44:12;;;;;;;0.57;0.32;;;;;;;;;;4211313;28;20074;-34
2022/04/01 02:46:13;;;;;;;0.50;0.20;;;;;;;;;;4211465;28;20056;-35
2022/04/01 02:48:32;;;;;;;0.67;0.30;;;;;;;;;;4211395;28;20403;-35
2022/04/01 02:51:04;;;;;;;0.30;0.20;;;;;;;;;;4211551;28;20048;-35
2022/04/01 02:53:06;;;;;;;0.70;0.20;;;;;;;;;;4211066;28;20044;-35
2022/04/01 02:55:07;;;;;;;0.10;0.10;;;;;;;;;;4212404;28;20059;-35
2022/04/01 02:57:09;;;;;;;0.63;0.25;;;;;;;;;;4210712;28;20528;-35
2022/04/01 02:59:11;;;;;;;0.32;0.22;;;;;;;;;;4211231;28;20401;-35
2022/04/01 03:01:13;;;;;;;0.10;0.10;;;;;;;;;;4211102;28;20134;-36
2022/04/01 03:03:15;;;;;;;0.25;0.20;;;;;;;;;;4211908;28;20344;-35
2022/04/01 03:05:17;;;;;;;0.13;0.10;;;;;;;;;;4210919;28;20048;-35
2022/04/01 03:07:18;;;;;;;0.15;0.10;;;;;;;;;;4211115;28;20063;-34
2022/04/01 03:09:19;;;;;;;0.10;0.10;;;;;;;;;;4212158;28;20043;-35
2022/04/01 03:11:43;;;;;;;0.40;0.25;;;;;;;;;;4210814;28;20097;-35
2022/04/01 03:13:57;;;;;;;0.40;0.20;;;;;;;;;;4194077;28;20106;-35
2022/04/01 03:16:24;;;;;;;1.13;0.30;;;;;;;;;;4201998;28;20049;-35
2022/04/01 03:18:29;;;;;;;0.30;0.20;;;;;;;;;;4177255;28;20049;-34
2022/04/01 03:20:33;;;;;;;0.80;0.32;;;;;;;;;;4210884;28;20101;-34
2022/04/01 03:22:34;;;;;;;1.20;0.22;;;;;;;;;;4210763;28;20044;-35
2022/04/01 03:24:35;;;;;;;0.28;0.20;;;;;;;;;;4194118;28;20101;-34
2022/04/01 03:26:39;;;;;;;0.30;0.20;;;;;;;;;;4193954;28;20045;-34
2022/04/01 03:28:40;;;;;;;0.85;0.15;;;;;;;;;;4193836;28;20102;-34
2022/04/01 03:30:42;;;;;;;1.58;0.30;;;;;;;;;;4194502;28;20094;-34
2022/04/01 03:32:45;;;;;;;1.42;0.20;;;;;;;;;;4193502;28;20044;-35
2022/04/01 03:34:47;;;;;;;0.25;0.25;;;;;;;;;;4194327;28;20049;-34
2022/04/01 03:36:48;;;;;;;0.17;0.17;;;;;;;;;;4195214;28;20052;-35
2022/04/01 03:38:50;;;;;;;0.70;0.20;;;;;;;;;;4194105;28;20213;-35
2022/04/01 03:41:00;;;;;;;0.80;0.43;;;;;;;;;;4193966;28;20056;-34
2022/04/01 03:43:01;;;;;;;0.10;0.10;;;;;;;;;;4193894;28;20048;-34
2022/04/01 03:45:03;;;;;;;0.25;0.20;;;;;;;;;;4193846;28;20072;-35
2022/04/01 03:47:21;;;;;;;0.45;0.17;;;;;;;;;;4193366;28;20045;-35
2022/04/01 03:49:23;;;;;;;0.40;0.20;;;;;;;;;;4194083;28;20415;-35
2022/04/01 03:51:25;;;;;;;0.65;0.10;;;;;;;;;;4193891;28;20098;-35
2022/04/01 03:53:29;;;;;;;0.20;0.10;;;;;;;;;;4193833;28;20048;-35
2022/04/01 03:55:33;;;;;;;0.10;0.10;;;;;;;;;;4193751;28;20060;-35
2022/04/01 03:57:55;;;;;;;0.50;0.25;;;;;;;;;;4196603;28;20055;-35
2022/04/01 04:00:15;;;;;;;0.30;0.30;;;;;;;;;;4196971;28;20045;-35
2022/04/01 04:02:20;;;;;;;0.50;0.30;;;;;;;;;;4195657;28;20499;-34
2022/04/01 04:04:21;;;;;;;0.32;0.20;;;;;;;;;;4195654;28;20052;-35
2022/04/01 04:06:25;;;;;;;0.28;0.15;;;;;;;;;;4196980;28;20451;-35
2022/04/01 04:08:26;;;;;;;0.30;0.30;;;;;;;;;;4198558;28;20036;-39
2022/04/01 04:10:29;;;;;;;1.65;0.38;;;;;;;;;;4196742;28;20060;-35
2022/04/01 04:12:48;;;;;;;0.52;0.20;;;;;;;;;;4196752;28;20106;-35
2022/04/01 04:14:51;;;;;;;0.30;0.20;;;;;;;;;;4196958;28;20413;-35
2022/04/01 04:16:55;;;;;;;1.02;0.32;;;;;;;;;;4197866;28;20048;-35
2022/04/01 04:19:19;;;;;;;0.20;0.20;;;;;;;;;;4197068;28;20082;-35
2022/04/01 04:21:24;;;;;;;1.02;0.20;;;;;;;;;;4194061;28;20049;-35
2022/04/01 04:23:39;;;;;;;0.20;0.10;;;;;;;;;;4198099;28;20148;-35
2022/04/01 04:25:44;;;;;;;0.22;0.22;;;;;;;;;;4196713;28;20091;-35
2022/04/01 04:27:58;;;;;;;0.20;0.20;;;;;;;;;;4196737;28;20040;-35
2022/04/01 04:30:08;;;;;;;0.35;0.20;;;;;;;;;;4196866;28;20040;-34
2022/04/01 04:32:39;;;;;;;0.43;0.20;;;;;;;;;;4204283;28;20117;-34
2022/04/01 04:34:44;;;;;;;0.30;0.20;;;;;;;;;;4213352;28;20055;-34
2022/04/01 04:36:49;;;;;;;0.82;0.30;;;;;;;;;;4210735;28;20063;-35
2022/04/01 04:38:52;;;;;;;0.50;0.20;;;;;;;;;;4195172;28;20107;-35
2022/04/01 04:40:54;;;;;;;1.17;0.20;;;;;;;;;;4211925;28;20530;-35
2022/04/01 04:42:55;;;;;;;0.57;0.25;;;;;;;;;;4213086;28;20052;-34
2022/04/01 04:44:58;;;;;;;0.85;0.20;;;;;;;;;;4212028;28;20101;-35
2022/04/01 04:47:00;;;;;;;0.20;0.20;;;;;;;;;;4211506;28;20048;-35
2022/04/01 04:49:02;;;;;;;0.20;0.10;;;;;;;;;;4213518;28;20528;-35
2022/04/01 04:51:05;;;;;;;0.43;0.20;;;;;;;;;;4213580;28;20044;-34
2022/04/01 04:53:15;;;;;;;0.45;0.30;;;;;;;;;;4195942;28;20342;-35
2022/04/01 04:55:19;;;;;;;0.20;0.20;;;;;;;;;;4211565;28;20408;-34
2022/04/01 04:57:33;;;;;;;0.75;0.30;;;;;;;;;;4211780;28;20094;-35
2022/04/01 04:59:38;;;;;;;1.27;0.20;;;;;;;;;;4205327;28;20040;-35
2022/04/01 05:01:49;;;;;;;0.95;0.20;;;;;;;;;;4199355;28;20044;-35
2022/04/01 05:03:51;;;;;;;0.43;0.25;;;;;;;;;;4198604;28;20048;-35
2022/04/01 05:05:56;;;;;;;0.30;0.20;;;;;;;;;;4197348;28;20153;-35
2022/04/01 05:08:02;;;;;;;0.38;0.20;;;;;;;;;;4199795;28;20104;-34
2022/04/01 05:10:36;;;;;;;0.63;0.10;;;;;;;;;;4196913;28;20464;-35
2022/04/01 05:12:44;;;;;;;0.88;0.30;;;;;;;;;;4193338;28;20114;-35
2022/04/01 05:15:17;;;;;;;0.20;0.20;;;;;;;;;;4200904;28;20534;-35
2022/04/01 05:17:41;;;;;;;0.40;0.22;;;;;;;;;;4192044;28;20032;-35
2022/04/01 05:19:47;;;;;;;1.08;0.40;;;;;;;;;;4198492;28;20048;-35
2022/04/01 05:21:47;;;;;;;0.40;0.40;;;;;;;;;;4200439;28;20045;-35
2022/04/01 05:23:49;;;;;;;0.17;0.17;;;;;;;;;;4178967;28;20095;-35
2022/04/01 05:25:55;;;;;;;0.30;0.20;;;;;;;;;;4203259;28;20655;-35
2022/04/01 05:28:37;;;;;;;1.25;0.35;;;;;;;;;;4203958;28;20403;-35
2022/04/01 05:30:39;;;;;;;0.35;0.20;;;;;;;;;;4197795;28;20055;-35
2022/04/01 05:33:02;;;;;;;0.50;0.30;;;;;;;;;;4200222;28;20053;-35
2022/04/01 05:35:04;;;;;;;0.45;0.40;;;;;;;;;;4203938;28;20066;-34
2022/04/01 05:37:06;;;;;;;1.65;0.40;;;;;;;;;;4202372;28;20068;-36
2022/04/01 05:39:11;;;;;;;0.52;0.25;;;;;;;;;;4199983;28;20190;-44
2022/04/01 05:41:17;;;;;;;2.55;0.40;;;;;;;;;;4207629;28;20510;-35
2022/04/01 05:43:19;;;;;;;0.63;0.30;;;;;;;;;;4203560;28;20482;-34
2022/04/01 05:45:41;;;;;;;0.22;0.22;;;;;;;;;;4195332;28;20056;-33
2022/04/01 05:47:46;;;;;;;0.82;0.40;;;;;;;;;;4196195;28;20692;-35
2022/04/01 05:49:47;;;;;;;0.80;0.20;;;;;;;;;;4212092;28;20043;-35
2022/04/01 05:51:53;;;;;;;2.15;0.38;;;;;;;;;;4198694;28;20524;-35
2022/04/01 05:53:55;;;;;;;0.85;0.32;;;;;;;;;;4203777;28;20052;-35
2022/04/01 05:55:56;;;;;;;0.40;0.25;;;;;;;;;;4201419;28;20105;-35
2022/04/01 05:57:57;;;;;;;1.90;0.38;;;;;;;;;;4204712;28;20108;-35
2022/04/01 05:59:58;;;;;;;1.02;0.50;;;;;;;;;;4192250;28;20098;-35
2022/04/01 06:02:09;;;;;;;0.70;0.30;;;;;;;;;;4195757;28;20125;-35
2022/04/01 06:04:22;;;;;;;2.47;0.40;;;;;;;;;;4189824;28;20056;-35
2022/04/01 06:06:26;;;;;;;0.60;0.32;;;;;;;;;;4194013;28;20571;-35
2022/04/01 06:08:36;;;;;;;3.53;0.50;;;;;;;;;;4197806;28;20074;-35
2022/04/01 06:10:48;;;;;;;2.33;0.50;;;;;;;;;;4200119;28;20527;-35
2022/04/01 06:13:53;;;;;;;2.40;0.90;;;;;;;;;;4199827;28;20079;-35
2022/04/01 06:16:32;;;;;;;3.03;0.50;;;;;;;;;;4198370;28;20503;-35
2022/04/01 06:19:08;;;;;;;6.78;0.80;;;;;;;;;;4196990;28;20048;-35
2022/04/01 06:21:14;;;;;;;2.20;0.75;;;;;;;;;;4194638;28;20067;-35
2022/04/01 06:23:23;;;;;;;3.53;0.60;;;;;;;;;;4188123;28;20051;-35
2022/04/01 06:25:28;;;;;;;2.28;0.68;;;;;;;;;;4176314;28;20131;-35
2022/04/01 06:27:38;;;;;;;1.55;0.57;;;;;;;;;;4178251;28;20528;-34
2022/04/01 06:29:39;;;;;;;;;;;;;;;;;;4184852;28;20051;-36
2022/04/01 06:31:44;;;;;;;1.77;1.15;;;;;;;;;;4191237;28;20288;-37
2022/04/01 06:34:09;;;;;;;2.83;0.82;;;;;;;;;;4193654;28;20094;-35
2022/04/01 06:36:40;;;;;;;0.75;0.35;;;;;;;;;;4193219;28;20060;-35
2022/04/01 06:38:48;;;;;;;2.33;0.50;;;;;;;;;;4190816;28;20196;-36
2022/04/01 06:41:24;;;;;;;2.42;0.50;;;;;;;;;;4204130;27;20056;-35
2022/04/01 06:43:31;;;;;;;1.10;0.50;;;;;;;;;;4162305;28;20057;-35
2022/04/01 06:45:51;;;;;;;1.30;0.43;;;;;;;;;;4169644;28;20056;-33
2022/04/01 06:48:13;;;;;;;1.80;0.65;;;;;;;;;;4174433;28;20114;-33
2022/04/01 06:50:34;;;;;;;1.70;0.52;;;;;;;;;;4182377;28;20344;-33
2022/04/01 06:53:10;;;;;;;4.20;0.47;;;;;;;;;;4183389;28;20048;-36
2022/04/01 06:55:30;;;;;;;1.95;0.52;;;;;;;;;;4182973;28;20164;-35
2022/04/01 06:57:36;;;;;;;2.90;0.40;;;;;;;;;;4178196;28;20539;-35
2022/04/01 06:59:50;;;;;;;1.30;0.65;;;;;;;;;;4178313;28;20086;-33
2022/04/01 07:01:51;;;;;;;1.70;0.60;;;;;;;;;;4176258;28;20086;-33
2022/04/01 07:03:52;;;;;;;1.33;0.43;;;;;;;;;;4165616;28;20850;-33
2022/04/01 07:05:55;;;;;;;2.10;0.45;;;;;;;;;;4174246;28;20450;-33
2022/04/01 07:07:56;;;;;;;2.25;0.40;;;;;;;;;;4177158;28;20414;-33
2022/04/01 07:09:57;;;;;;;2.10;0.35;;;;;;;;;;4173945;28;20832;-33
2022/04/01 07:12:01;;;;;;;2.75;0.55;;;;;;;;;;4181437;28;20121;-33
2022/04/01 07:14:02;;;;;;;1.83;0.40;;;;;;;;;;4179845;28;20063;-33
2022/04/01 07:16:06;;;;;;;1.30;0.40;;;;;;;;;;4169159;28;20309;-33
2022/04/01 07:18:07;;;;;;;2.05;0.40;;;;;;;;;;4179092;28;20055;-35
2022/04/01 07:20:10;;;;;;;0.93;0.40;;;;;;;;;;4178127;28;20082;-33
2022/04/01 07:22:11;;;;;;;2.10;0.30;;;;;;;;;;4179648;28;20044;-34
2022/04/01 07:24:12;;;;;;;2.63;0.50;;;;;;;;;;4177281;28;20073;-34
2022/04/01 07:26:13;;;;;;;1.38;0.40;;;;;;;;;;4169435;28;20487;-35
2022/04/01 07:28:14;;;;;;;5.35;0.50;;;;;;;;;;4177051;28;20067;-35
2022/04/01 07:30:16;;;;;;;1.20;0.40;;;;;;;;;;4173375;28;20048;-36
2022/04/01 07:32:29;;;;;;;0.95;0.40;;;;;;;;;;4175825;28;20048;-36
2022/04/01 07:34:30;;;;;;;1.35;0.50;;;;;;;;;;4186403;28;20117;-36
2022/04/01 07:36:31;;;;;;;2.60;0.57;;;;;;;;;;4185076;28;20078;-35
2022/04/01 07:38:34;;;;;;;1.75;0.47;;;;;;;;;;4180422;28;20062;-35
2022/04/01 07:40:35;;;;;;;0.98;0.40;;;;;;;;;;4175248;28;20059;-35
2022/04/01 07:42:36;;;;;;;1.20;0.35;;;;;;;;;;4175877;28;20667;-36
2022/04/01 07:44:37;;;;;;;2.95;0.40;;;;;;;;;;4184829;28;20060;-35
2022/04/01 07:46:38;;;;;;;1.20;0.40;;;;;;;;;;4181927;28;20105;-35
2022/04/01 07:48:39;;;;;;;3.05;0.55;;;;;;;;;;4181281;27;20059;-36
2022/04/01 07:50:40;;;;;;;2.53;0.52;;;;;;;;;;4186568;28;20094;-34
2022/04/01 07:52:43;;;;;;;1.40;0.47;;;;;;;;;;4182933;28;20058;-35
2022/04/01 07:54:44;;;;;;;1.88;0.40;;;;;;;;;;4177026;28;20051;-35
2022/04/01 07:56:45;;;;;;;2.60;1.17;;;;;;;;;;4186672;28;20133;-35
2022/04/01 07:58:46;;;;;;;0.52;0.30;;;;;;;;;;4176458;28;20181;-35
2022/04/01 08:00:47;;;;;;;3.42;0.40;;;;;;;;;;4180156;28;20841;-35
2022/04/01 08:02:49;;;;;;;3.58;0.40;;;;;;;;;;4172761;28;20052;-35
2022/04/01 08:04:50;;;;;;;3.08;0.45;;;;;;;;;;4177453;28;23569;-35
2022/04/01 08:06:51;;;;;;;1.05;0.30;;;;;;;;;;4183405;28;20174;-35
2022/04/01 08:08:55;;;;;;;3.63;0.68;;;;;;;;;;4178942;28;20048;-35
2022/04/01 08:10:57;;;;;;;0.85;0.30;;;;;;;;;;4185879;28;21448;-35
2022/04/01 08:12:58;;;;;;;3.03;0.45;;;;;;;;;;4189845;28;20109;-35
2022/04/01 08:14:59;;;;;;;0.82;0.47;;;;;;;;;;4187077;28;20074;-35
2022/04/01 08:17:00;;;;;;;0.32;0.30;;;;;;;;;;4181366;28;20062;-35
2022/04/01 08:19:02;;;;;;;1.88;0.52;;;;;;;;;;4166517;28;21742;-35
2022/04/01 08:21:05;;;;;;;4.05;0.40;;;;;;;;;;4182368;28;20063;-35
2022/04/01 08:23:06;;;;;;;2.33;0.50;;;;;;;;;;4184277;28;20052;-35
2022/04/01 08:25:08;;;;;;;1.30;0.40;;;;;;;;;;4178802;28;20053;-36
2022/04/01 08:27:09;;;;;;;1.25;0.60;;;;;;;;;;4178442;28;20051;-35
2022/04/01 08:29:10;;;;;;;0.55;0.30;;;;;;;;;;4185813;28;20049;-35
2022/04/01 08:31:11;;;;;;;1.42;0.50;;;;;;;;;;4172818;28;21216;-35
2022/04/01 08:33:17;;;;;;;0.90;0.43;;;;;;;;;;4178256;28;20082;-35
2022/04/01 08:35:18;;;;;;;2.40;0.80;;;;;;;;;;4184412;28;20052;-35
2022/04/01 08:37:19;;;;;;;1.73;0.63;;;;;;;;;;4180069;28;20101;-35
2022/04/01 08:39:21;;;;;;;0.70;0.45;;;;;;;;;;4180359;28;20056;-35
2022/04/01 08:41:22;;;;;;;1.75;0.50;;;;;;;;;;4178892;28;20170;-35
2022/04/01 08:43:27;;;;;;;1.05;0.40;;;;;;;;;;4178816;28;20052;-35
2022/04/01 08:45:31;;;;;;;1.10;0.40;;;;;;;;;;4169984;28;20676;-35
2022/04/01 08:47:34;;;;;;;2.45;0.50;;;;;;;;;;4175267;28;20118;-35
2022/04/01 08:49:35;;;;;;;1.55;0.50;;;;;;;;;;4177565;28;20519;-35
2022/04/01 08:51:36;;;;;;;2.05;0.57;;;;;;;;;;4177836;28;20089;-35
2022/04/01 08:53:39;;;;;;;1.98;0.40;;;;;;;;;;4171595;28;20168;-34
2022/04/01 08:55:43;;;;;;;3.30;0.50;;;;;;;;;;4171973;28;20494;-35
2022/04/01 08:57:44;;;;;;;2.45;0.50;;;;;;;;;;4176154;28;21125;-35
2022/04/01 08:59:45;;;;;;;0.38;0.30;;;;;;;;;;4178104;28;20611;-35
2022/04/01 09:01:46;;;;;;;1.95;0.35;;;;;;;;;;4171187;28;22252;-34
2022/04/01 09:03:47;;;;;;;0.70;0.22;;;;;;;;;;4169893;28;21565;-34
2022/04/01 09:05:53;;;;;;;0.68;0.30;;;;;;;;;;4175618;28;20056;-35
2022/04/01 09:08:01;;;;;;;0.57;0.28;;;;;;;;;;4179439;28;20048;-35
2022/04/01 09:10:03;;;;;;;0.68;0.40;;;;;;;;;;4179630;28;20049;-35
2022/04/01 09:12:09;;;;;;;1.20;0.50;;;;;;;;;;4179886;28;20044;-35
2022/04/01 09:14:20;;;;;;;5.35;0.40;;;;;;;;;;4180187;28;20129;-35
2022/04/01 09:16:28;;;;;;;1.70;0.38;;;;;;;;;;4173240;28;20056;-35
2022/04/01 09:18:33;;;;;;;0.47;0.30;;;;;;;;;;4175770;28;20082;-35
2022/04/01 09:20:44;;;;;;;0.90;0.30;;;;;;;;;;4178933;28;20113;-35
2022/04/01 09:22:45;;;;;;;2.15;0.30;;;;;;;;;;4183214;28;20992;-35
2022/04/01 09:24:57;;;;;;;2.60;0.40;;;;;;;;;;4179703;28;20667;-35
2022/04/01 09:26:58;;;;;;;0.75;0.32;;;;;;;;;;4179501;28;20137;-35
2022/04/01 09:28:59;;;;;;;1.15;0.30;;;;;;;;;;4178336;28;20246;-34
2022/04/01 09:31:00;;;;;;;1.35;0.40;;;;;;;;;;4173484;28;20254;-35
2022/04/01 09:33:01;;;;;;;0.90;0.30;;;;;;;;;;4181777;28;20052;-35
2022/04/01 09:35:03;;;;;;;0.38;0.20;;;;;;;;;;4189954;28;21032;-35
2022/04/01 09:37:04;;;;;;;1.15;0.30;;;;;;;;;;4187221;28;20503;-35
2022/04/01 09:39:05;;;;;;;2.25;0.40;;;;;;;;;;4190697;28;20048;-35
2022/04/01 09:41:08;;;;;;;0.68;0.38;;;;;;;;;;4185662;28;20068;-35
2022/04/01 09:43:09;;;;;;;0.50;0.20;;;;;;;;;;4179304;28;20188;-35
2022/04/01 09:45:13;;;;;;;5.32;0.40;;;;;;;;;;4187744;28;20063;-35
2022/04/01 09:47:16;;;;;;;5.20;0.55;;;;;;;;;;4177650;28;20633;-35
2022/04/01 09:49:34;;;;;;;0.98;0.20;;;;;;;;;;4175102;28;21461;-34
2022/04/01 09:51:39;;;;;;;0.90;0.40;;;;;;;;;;4182332;28;20047;-35
2022/04/01 09:53:49;;;;;;;0.30;0.15;;;;;;;;;;4184940;28;21603;-35
2022/04/01 09:55:50;;;;;;;;;;;;;;;;;;4185550;28;20044;-35
2022/04/01 09:57:51;;;;;;;0.55;0.35;;;;;;;;;;4172355;28;20394;-35
2022/04/01 09:59:53;;;;;;;0.55;0.25;;;;;;;;;;4178525;28;20450;-35
2022/04/01 10:01:54;;;;;;;0.13;0.10;;;;;;;;;;4175003;28;20054;-35
2022/04/01 10:03:55;;;;;;;0.45;0.20;;;;;;;;;;4186452;28;20056;-35
2022/04/01 10:05:57;;;;;;;0.43;0.20;;;;;;;;;;4185924;28;21816;-34
2022/04/01 10:08:00;;;;;;;0.57;0.20;;;;;;;;;;4185168;28;20089;-35
2022/04/01 10:10:02;;;;;;;1.45;0.20;;;;;;;;;;4191983;28;20056;-34
2022/04/01 10:12:07;;;;;;;0.55;0.30;;;;;;;;;;4185692;28;20064;-35
2022/04/01 10:14:14;;;;;;;3.35;0.70;;;;;;;;;;4187170;28;20672;-34
2022/04/01 10:16:15;;;;;;;0.75;0.20;;;;;;;;;;4184362;28;20477;-34
2022/04/01 10:18:18;;;;;;;0.30;0.13;;;;;;;;;;4184230;28;21186;-35
2022/04/01 10:20:21;;;;;;;1.02;0.50;;;;;;;;;;4181572;28;20125;-34
2022/04/01 10:22:22;;;;;;;0.60;0.10;;;;;;;;;;4181834;28;20051;-35
2022/04/01 10:24:42;;;;;;;1.25;0.20;;;;;;;;;;4182314;28;20058;-34
2022/04/01 10:27:00;;;;;;;2.63;0.30;;;;;;;;;;4178360;28;20056;-35
2022/04/01 10:29:02;;;;;;;0.20;0.20;;;;;;;;;;4200956;28;20096;-34
2022/04/01 10:31:03;;;;;;;2.80;0.30;;;;;;;;;;4183506;28;20087;-34
2022/04/01 10:33:05;;;;;;;0.90;0.22;;;;;;;;;;4180493;28;20189;-34
2022/04/01 10:35:07;;;;;;;0.15;0.15;;;;;;;;;;4183470;28;20562;-34
2022/04/01 10:37:13;;;;;;;0.98;0.10;;;;;;;;;;4181295;28;20411;-34
2022/04/01 10:39:17;;;;;;;2.05;0.20;;;;;;;;;;4183769;28;20533;-34
2022/04/01 10:41:19;;;;;;;2.28;0.45;;;;;;;;;;4172632;28;20048;-34
2022/04/01 10:43:27;;;;;;;0.75;0.17;;;;;;;;;;4173889;28;20115;-34
2022/04/01 10:45:28;;;;;;;0.60;0.20;;;;;;;;;;4169863;28;20728;-34
2022/04/01 10:52:40;;;;;;;1.17;0.13;;;;;;;;;;4172510;28;20469;-34
2022/04/01 10:54:43;;;;;;;0.55;0.20;;;;;;;;;;4179734;28;20094;-34
2022/04/01 10:56:50;;;;;;;0.55;0.20;;;;;;;;;;4178298;28;20090;-34
2022/04/01 10:59:06;;;;;;;0.55;0.30;;;;;;;;;;4172429;28;20068;-34
2022/04/01 11:01:22;;;;;;;1.05;0.20;;;;;;;;;;4175245;28;20117;-34
2022/04/01 11:03:23;;;;;;;2.97;0.40;;;;;;;;;;4180722;28;20124;-34
2022/04/01 11:05:29;;;;;;;0.30;0.20;;;;;;;;;;4185453;28;21164;-34
2022/04/01 11:07:33;;;;;;;0.30;0.10;;;;;;;;;;4187611;28;20177;-35
2022/04/01 11:09:36;;;;;;;0.10;0.10;;;;;;;;;;4177981;28;20048;-35
2022/04/01 11:11:37;;;;;;;0.30;0.15;;;;;;;;;;4187691;28;20122;-35
2022/04/01 11:13:38;;;;;;;0.55;0.10;;;;;;;;;;4186091;28;20082;-35
2022/04/01 11:15:39;;;;;;;0.45;0.10;;;;;;;;;;4182995;28;20048;-35
2022/04/01 11:17:40;;;;;;;0.30;0.20;;;;;;;;;;4183984;28;20078;-34
2022/04/01 11:19:58;;;;;;;1.13;0.38;;;;;;;;;;4189847;28;20048;-34
2022/04/01 11:22:01;;;;;;;2.65;0.20;;;;;;;;;;4177777;28;20067;-34
2022/04/01 11:24:03;;;;;;;2.15;0.20;;;;;;;;;;4182852;28;20600;-35
2022/04/01 11:26:04;;;;;;;0.82;0.28;;;;;;;;;;4181645;28;20106;-34
2022/04/01 11:28:11;;;;;;;1.45;0.20;;;;;;;;;;4184620;28;20129;-34
2022/04/01 11:30:13;;;;;;;1.88;0.28;;;;;;;;;;4178785;28;20056;-35
2022/04/01 11:32:17;;;;;;;1.02;0.32;;;;;;;;;;4174720;28;20049;-35
2022/04/01 11:34:18;;;;;;;1.10;0.30;;;;;;;;;;4189233;28;20957;-34
2022/04/01 11:36:21;;;;;;;0.28;0.10;;;;;;;;;;4178666;28;20127;-35
2022/04/01 11:38:24;;;;;;;0.82;0.20;;;;;;;;;;4183807;28;20503;-35
2022/04/01 11:40:27;;;;;;;1.10;0.52;;;;;;;;;;4189802;28;20576;-35
2022/04/01 11:42:28;;;;;;;1.55;0.20;;;;;;;;;;4185684;28;20052;-36
2022/04/01 11:44:29;;;;;;;2.33;0.25;;;;;;;;;;4182088;28;21442;-35
2022/04/01 11:46:30;;;;;;;1.05;0.13;;;;;;;;;;4177153;28;20145;-35
2022/04/01 11:48:36;;;;;;;0.32;0.13;;;;;;;;;;4177070;28;20604;-35
2022/04/01 11:50:36;;;;;;;0.32;0.30;;;;;;;;;;4180571;28;20068;-35
2022/04/01 11:52:40;;;;;;;0.40;0.10;;;;;;;;;;4178265;28;20055;-34
2022/04/01 11:54:42;;;;;;;0.75;0.30;;;;;;;;;;4181743;28;20413;-35
2022/04/01 11:56:45;;;;;;;0.85;0.40;;;;;;;;;;4177037;28;20068;-35
2022/04/01 11:58:46;;;;;;;1.13;0.35;;;;;;;;;;4173824;28;20060;-35
2022/04/01 12:00:48;;;;;;;0.73;0.20;;;;;;;;;;4181426;28;20048;-35
2022/04/01 12:02:53;;;;;;;0.50;0.13;;;;;;;;;;4177147;28;20059;-35
2022/04/01 12:04:54;;;;;;;0.38;0.15;;;;;;;;;;4174164;28;20063;-35
2022/04/01 12:09:17;;;;;;;0.55;0.10;;;;;;;;;;4181840;28;20102;-35
2022/04/01 12:11:18;;;;;;;0.70;0.20;;;;;;;;;;4183784;28;20466;-35
2022/04/01 12:13:19;;;;;;;0.85;0.17;;;;;;;;;;4180882;28;20143;-35
2022/04/01 12:15:30;;;;;;;0.88;0.10;;;;;;;;;;4181317;28;20217;-34
2022/04/01 12:17:33;;;;;;;0.47;0.20;;;;;;;;;;4183280;28;20083;-35
2022/04/01 12:19:34;;;;;;;1.65;0.13;;;;;;;;;;4183582;28;20565;-34
2022/04/01 12:21:35;;;;;;;0.70;0.15;;;;;;;;;;4182510;28;20102;-34
2022/04/01 12:23:36;;;;;;;0.60;0.10;;;;;;;;;;4182948;28;20055;-34
2022/04/01 12:25:38;;;;;;;0.43;0.10;;;;;;;;;;4186313;28;20506;-35
2022/04/01 12:27:52;;;;;;;1.38;0.10;;;;;;;;;;4180724;28;20365;-35
2022/04/01 12:29:54;;;;;;;0.93;0.43;;;;;;;;;;4185347;28;20056;-35
2022/04/01 12:31:59;;;;;;;0.30;0.10;;;;;;;;;;4183752;28;20052;-35
2022/04/01 12:34:00;;;;;;;0.55;0.20;;;;;;;;;;4187823;28;20420;-35
2022/04/01 12:36:07;;;;;;;0.22;0.10;;;;;;;;;;4187228;28;20070;-35
2022/04/01 12:38:10;;;;;;;1.33;0.10;;;;;;;;;;4191230;28;20047;-35
2022/04/01 12:40:10;;;;;;;0.10;0.00;;;;;;;;;;4188044;28;20053;-35
2022/04/01 12:42:13;;;;;;;0.50;0.03;;;;;;;;;;4184025;28;20056;-35